sensor_id;sensor_type;location;lat;lon;timestamp;pressure;altitude;pressure_sealevel;temperature;humidity
4570;BME280;2297;51.442;6.996;2023-02-19T00:01:18;100440.69;;;10.40;68.73
4570;BME280;2297;51.442;6.996;2023-02-19T00:03:48;100440.06;;;10.26;69.28
4570;BME280;2297;51.442;6.996;2023-02-19T00:06:17;100434.19;;;10.10;69.13
4570;BME280;2297;51.442;6.996;2023-02-19T00:08:44;100429.69;;;10.65;67.57
4570;BME280;2297;51.442;6.996;2023-02-19T00:11:13;100431.13;;;10.35;68.60
4570;BME280;2297;51.442;6.996;2023-02-19T00:13:42;100428.84;;;10.64;67.69
4570;BME280;2297;51.442;6.996;2023-02-19T00:16:12;100428.34;;;10.42;67.95
4570;BME280;2297;51.442;6.996;2023-02-19T00:18:39;100443.69;;;10.70;67.14
4570;BME280;2297;51.442;6.996;2023-02-19T00:21:06;100427.69;;;10.29;68.70
4570;BME280;2297;51.442;6.996;2023-02-19T00:23:33;100437.06;;;10.47;68.22
4570;BME280;2297;51.442;6.996;2023-02-19T00:26:01;100422.44;;;10.76;66.89
4570;BME280;2297;51.442;6.996;2023-02-19T00:28:28;100422.72;;;10.61;67.58
4570;BME280;2297;51.442;6.996;2023-02-19T00:31:05;100432.00;;;10.35;68.53
4570;BME280;2297;51.442;6.996;2023-02-19T00:33:32;100422.34;;;10.32;68.61
4570;BME280;2297;51.442;6.996;2023-02-19T00:35:59;100420.16;;;10.56;67.88
4570;BME280;2297;51.442;6.996;2023-02-19T00:38:26;100417.56;;;10.55;68.25
4570;BME280;2297;51.442;6.996;2023-02-19T00:40:53;100411.88;;;10.75;67.51
4570;BME280;2297;51.442;6.996;2023-02-19T00:43:20;100405.03;;;10.66;67.98
4570;BME280;2297;51.442;6.996;2023-02-19T00:45:46;100412.91;;;10.68;67.78
4570;BME280;2297;51.442;6.996;2023-02-19T00:48:14;100404.16;;;10.64;68.30
4570;BME280;2297;51.442;6.996;2023-02-19T00:50:41;100406.00;;;10.60;68.25
4570;BME280;2297;51.442;6.996;2023-02-19T00:56:24;100411.28;;;10.62;68.51
4570;BME280;2297;51.442;6.996;2023-02-19T00:58:51;100399.91;;;10.57;68.36
4570;BME280;2297;51.442;6.996;2023-02-19T01:01:18;100408.56;;;10.65;68.18
4570;BME280;2297;51.442;6.996;2023-02-19T01:03:47;100395.88;;;10.37;68.81
4570;BME280;2297;51.442;6.996;2023-02-19T01:06:16;100388.66;;;10.47;68.47
4570;BME280;2297;51.442;6.996;2023-02-19T01:08:44;100397.34;;;10.05;69.84
4570;BME280;2297;51.442;6.996;2023-02-19T01:11:11;100410.75;;;10.41;69.24
4570;BME280;2297;51.442;6.996;2023-02-19T01:13:39;100404.19;;;10.16;69.84
4570;BME280;2297;51.442;6.996;2023-02-19T01:16:07;100393.69;;;10.12;69.77
4570;BME280;2297;51.442;6.996;2023-02-19T01:18:34;100390.28;;;10.54;68.74
4570;BME280;2297;51.442;6.996;2023-02-19T01:21:05;100399.81;;;10.61;68.46
4570;BME280;2297;51.442;6.996;2023-02-19T01:23:32;100403.19;;;10.68;68.23
4570;BME280;2297;51.442;6.996;2023-02-19T01:25:59;100396.06;;;10.73;67.86
4570;BME280;2297;51.442;6.996;2023-02-19T01:28:25;100394.50;;;10.63;68.12
4570;BME280;2297;51.442;6.996;2023-02-19T01:30:52;100390.09;;;10.63;67.99
4570;BME280;2297;51.442;6.996;2023-02-19T01:33:19;100395.59;;;10.53;68.27
4570;BME280;2297;51.442;6.996;2023-02-19T01:35:45;100390.13;;;10.62;68.49
4570;BME280;2297;51.442;6.996;2023-02-19T01:38:13;100393.72;;;10.59;68.40
4570;BME280;2297;51.442;6.996;2023-02-19T01:40:40;100391.28;;;10.48;69.07
4570;BME280;2297;51.442;6.996;2023-02-19T01:43:12;100393.31;;;10.34;69.16
4570;BME280;2297;51.442;6.996;2023-02-19T01:45:42;100387.72;;;10.50;68.77
4570;BME280;2297;51.442;6.996;2023-02-19T01:48:12;100391.06;;;10.59;68.95
4570;BME280;2297;51.442;6.996;2023-02-19T01:50:44;100387.84;;;10.43;68.99
4570;BME280;2297;51.442;6.996;2023-02-19T01:53:16;100384.63;;;10.26;69.52
4570;BME280;2297;51.442;6.996;2023-02-19T01:55:45;100381.59;;;9.99;70.66
4570;BME280;2297;51.442;6.996;2023-02-19T01:58:14;100396.09;;;10.26;69.58
4570;BME280;2297;51.442;6.996;2023-02-19T02:00:41;100392.56;;;10.26;69.71
4570;BME280;2297;51.442;6.996;2023-02-19T02:03:07;100389.66;;;10.41;69.04
4570;BME280;2297;51.442;6.996;2023-02-19T02:05:44;100398.16;;;10.09;69.29
4570;BME280;2297;51.442;6.996;2023-02-19T02:08:15;100399.59;;;9.72;70.94
4570;BME280;2297;51.442;6.996;2023-02-19T02:11:01;100377.69;;;10.22;70.12
4570;BME280;2297;51.442;6.996;2023-02-19T02:13:28;100391.72;;;10.24;69.64
4570;BME280;2297;51.442;6.996;2023-02-19T02:16:01;100405.91;;;10.17;69.80
4570;BME280;2297;51.442;6.996;2023-02-19T02:18:39;100397.78;;;10.30;69.17
4570;BME280;2297;51.442;6.996;2023-02-19T02:24:35;100416.75;;;10.01;70.10
4570;BME280;2297;51.442;6.996;2023-02-19T02:27:27;100411.59;;;9.92;70.65
4570;BME280;2297;51.442;6.996;2023-02-19T02:30:11;100412.56;;;9.88;70.31
4570;BME280;2297;51.442;6.996;2023-02-19T02:32:45;100403.41;;;10.10;69.45
4570;BME280;2297;51.442;6.996;2023-02-19T02:35:19;100403.31;;;10.15;69.22
4570;BME280;2297;51.442;6.996;2023-02-19T02:37:48;100394.16;;;10.35;68.65
4570;BME280;2297;51.442;6.996;2023-02-19T02:40:16;100397.91;;;10.23;68.77
4570;BME280;2297;51.442;6.996;2023-02-19T02:42:43;100400.31;;;10.35;68.32
4570;BME280;2297;51.442;6.996;2023-02-19T02:45:29;100402.53;;;10.11;69.10
4570;BME280;2297;51.442;6.996;2023-02-19T02:48:08;100398.63;;;10.31;68.48
4570;BME280;2297;51.442;6.996;2023-02-19T02:50:39;100404.53;;;9.97;69.31
4570;BME280;2297;51.442;6.996;2023-02-19T02:53:10;100408.59;;;10.15;68.50
4570;BME280;2297;51.442;6.996;2023-02-19T02:55:56;100404.00;;;10.26;68.32
4570;BME280;2297;51.442;6.996;2023-02-19T02:58:24;100410.47;;;10.08;68.38
4570;BME280;2297;51.442;6.996;2023-02-19T03:00:58;100408.56;;;10.17;68.17
4570;BME280;2297;51.442;6.996;2023-02-19T03:03:45;100404.91;;;10.25;67.93
4570;BME280;2297;51.442;6.996;2023-02-19T03:06:16;100407.66;;;10.18;68.24
4570;BME280;2297;51.442;6.996;2023-02-19T03:08:50;100413.50;;;10.37;67.33
4570;BME280;2297;51.442;6.996;2023-02-19T03:11:19;100408.06;;;10.46;66.92
4570;BME280;2297;51.442;6.996;2023-02-19T03:14:06;100422.44;;;10.28;66.89
4570;BME280;2297;51.442;6.996;2023-02-19T03:16:58;100415.88;;;10.51;66.49
4570;BME280;2297;51.442;6.996;2023-02-19T03:19:46;100414.19;;;9.96;67.69
4570;BME280;2297;51.442;6.996;2023-02-19T03:22:17;100413.22;;;10.02;68.07
4570;BME280;2297;51.442;6.996;2023-02-19T03:24:48;100434.19;;;10.11;67.22
4570;BME280;2297;51.442;6.996;2023-02-19T03:27:35;100435.88;;;10.14;67.27
4570;BME280;2297;51.442;6.996;2023-02-19T03:30:08;100435.97;;;10.09;67.22
4570;BME280;2297;51.442;6.996;2023-02-19T03:32:41;100430.47;;;10.22;67.07
4570;BME280;2297;51.442;6.996;2023-02-19T03:35:12;100449.09;;;10.12;66.61
4570;BME280;2297;51.442;6.996;2023-02-19T03:37:41;100443.56;;;10.28;66.21
4570;BME280;2297;51.442;6.996;2023-02-19T03:40:10;100448.16;;;10.18;66.69
4570;BME280;2297;51.442;6.996;2023-02-19T03:42:42;100444.53;;;10.24;65.96
4570;BME280;2297;51.442;6.996;2023-02-19T03:45:24;100450.81;;;10.15;65.95
4570;BME280;2297;51.442;6.996;2023-02-19T03:48:02;100449.44;;;9.91;66.55
4570;BME280;2297;51.442;6.996;2023-02-19T03:50:37;100460.88;;;9.90;66.92
4570;BME280;2297;51.442;6.996;2023-02-19T03:53:11;100457.72;;;10.24;66.14
4570;BME280;2297;51.442;6.996;2023-02-19T03:55:44;100457.28;;;9.97;66.03
4570;BME280;2297;51.442;6.996;2023-02-19T03:58:16;100456.13;;;10.13;65.90
4570;BME280;2297;51.442;6.996;2023-02-19T04:00:48;100469.97;;;10.28;65.37
4570;BME280;2297;51.442;6.996;2023-02-19T04:03:25;100472.19;;;9.98;66.60
4570;BME280;2297;51.442;6.996;2023-02-19T04:05:58;100471.00;;;10.18;66.25
4570;BME280;2297;51.442;6.996;2023-02-19T04:08:26;100483.53;;;10.05;66.40
4570;BME280;2297;51.442;6.996;2023-02-19T04:10:55;100481.56;;;10.18;66.03
4570;BME280;2297;51.442;6.996;2023-02-19T04:13:27;100484.03;;;10.30;65.93
4570;BME280;2297;51.442;6.996;2023-02-19T04:16:01;100487.72;;;10.18;66.20
4570;BME280;2297;51.442;6.996;2023-02-19T04:18:34;100486.16;;;10.05;66.54
4570;BME280;2297;51.442;6.996;2023-02-19T04:21:02;100490.63;;;10.01;66.53
4570;BME280;2297;51.442;6.996;2023-02-19T04:23:36;100497.53;;;10.11;66.26
4570;BME280;2297;51.442;6.996;2023-02-19T04:26:05;100499.34;;;10.06;66.66
4570;BME280;2297;51.442;6.996;2023-02-19T04:28:34;100494.09;;;10.03;66.89
4570;BME280;2297;51.442;6.996;2023-02-19T04:31:01;100499.16;;;10.19;66.44
4570;BME280;2297;51.442;6.996;2023-02-19T04:33:27;100509.78;;;10.16;66.73
4570;BME280;2297;51.442;6.996;2023-02-19T04:35:55;100515.06;;;10.12;66.56
4570;BME280;2297;51.442;6.996;2023-02-19T04:38:22;100515.28;;;10.00;66.88
4570;BME280;2297;51.442;6.996;2023-02-19T04:40:48;100515.38;;;9.91;67.33
4570;BME280;2297;51.442;6.996;2023-02-19T04:43:15;100525.91;;;9.94;67.13
4570;BME280;2297;51.442;6.996;2023-02-19T04:45:42;100524.25;;;9.87;66.92
4570;BME280;2297;51.442;6.996;2023-02-19T04:48:09;100519.00;;;9.84;66.65
4570;BME280;2297;51.442;6.996;2023-02-19T04:50:36;100529.59;;;9.80;66.55
4570;BME280;2297;51.442;6.996;2023-02-19T04:53:05;100530.19;;;10.03;66.21
4570;BME280;2297;51.442;6.996;2023-02-19T04:55:35;100527.72;;;9.90;66.42
4570;BME280;2297;51.442;6.996;2023-02-19T04:58:02;100528.63;;;9.88;66.56
4570;BME280;2297;51.442;6.996;2023-02-19T05:00:28;100538.25;;;9.93;66.55
4570;BME280;2297;51.442;6.996;2023-02-19T05:02:55;100533.09;;;9.82;66.75
4570;BME280;2297;51.442;6.996;2023-02-19T05:05:22;100535.31;;;10.12;66.13
4570;BME280;2297;51.442;6.996;2023-02-19T05:07:48;100535.25;;;10.17;66.11
4570;BME280;2297;51.442;6.996;2023-02-19T05:10:16;100550.53;;;9.93;66.35
4570;BME280;2297;51.442;6.996;2023-02-19T05:12:43;100547.81;;;10.02;66.13
4570;BME280;2297;51.442;6.996;2023-02-19T05:15:09;100555.53;;;10.14;66.04
4570;BME280;2297;51.442;6.996;2023-02-19T05:17:36;100559.25;;;9.98;66.36
4570;BME280;2297;51.442;6.996;2023-02-19T05:20:03;100561.00;;;9.99;66.35
4570;BME280;2297;51.442;6.996;2023-02-19T05:22:30;100563.59;;;10.04;66.03
4570;BME280;2297;51.442;6.996;2023-02-19T05:24:56;100569.00;;;9.93;66.37
4570;BME280;2297;51.442;6.996;2023-02-19T05:27:24;100565.56;;;9.88;66.75
4570;BME280;2297;51.442;6.996;2023-02-19T05:29:51;100573.41;;;9.91;66.09
4570;BME280;2297;51.442;6.996;2023-02-19T05:32:18;100587.25;;;10.11;65.62
4570;BME280;2297;51.442;6.996;2023-02-19T05:34:44;100573.41;;;9.91;65.67
4570;BME280;2297;51.442;6.996;2023-02-19T05:37:11;100576.75;;;10.07;65.61
4570;BME280;2297;51.442;6.996;2023-02-19T05:39:37;100586.59;;;9.94;65.74
4570;BME280;2297;51.442;6.996;2023-02-19T05:42:04;100587.53;;;9.87;65.90
4570;BME280;2297;51.442;6.996;2023-02-19T05:44:32;100577.31;;;9.62;67.01
4570;BME280;2297;51.442;6.996;2023-02-19T05:46:59;100587.59;;;9.84;66.53
4570;BME280;2297;51.442;6.996;2023-02-19T05:49:25;100592.88;;;9.84;66.43
4570;BME280;2297;51.442;6.996;2023-02-19T05:51:52;100593.88;;;9.73;66.25
4570;BME280;2297;51.442;6.996;2023-02-19T05:54:19;100592.91;;;9.80;66.38
4570;BME280;2297;51.442;6.996;2023-02-19T05:56:45;100604.56;;;9.64;66.65
4570;BME280;2297;51.442;6.996;2023-02-19T05:59:15;100603.38;;;9.87;66.26
4570;BME280;2297;51.442;6.996;2023-02-19T06:01:43;100594.78;;;9.72;66.46
4570;BME280;2297;51.442;6.996;2023-02-19T06:04:11;100610.28;;;9.98;66.15
4570;BME280;2297;51.442;6.996;2023-02-19T06:07:03;100604.56;;;9.64;66.90
4570;BME280;2297;51.442;6.996;2023-02-19T06:09:29;100599.34;;;9.56;67.20
4570;BME280;2297;51.442;6.996;2023-02-19T06:11:56;100601.91;;;9.64;67.20
4570;BME280;2297;51.442;6.996;2023-02-19T06:14:23;100602.03;;;9.55;67.32
4570;BME280;2297;51.442;6.996;2023-02-19T06:16:51;100606.19;;;9.74;66.79
4570;BME280;2297;51.442;6.996;2023-02-19T06:19:17;100599.22;;;9.67;67.22
4570;BME280;2297;51.442;6.996;2023-02-19T06:21:44;100607.34;;;9.50;67.58
4570;BME280;2297;51.442;6.996;2023-02-19T06:24:10;100601.03;;;9.63;67.21
4570;BME280;2297;51.442;6.996;2023-02-19T06:26:37;100611.09;;;9.29;68.18
4570;BME280;2297;51.442;6.996;2023-02-19T06:29:04;100623.03;;;9.61;67.02
4570;BME280;2297;51.442;6.996;2023-02-19T06:31:30;100630.16;;;9.53;67.04
4570;BME280;2297;51.442;6.996;2023-02-19T06:33:58;100635.31;;;9.65;67.32
4570;BME280;2297;51.442;6.996;2023-02-19T06:36:28;100634.47;;;9.61;67.47
4570;BME280;2297;51.442;6.996;2023-02-19T06:38:58;100640.41;;;9.79;67.17
4570;BME280;2297;51.442;6.996;2023-02-19T06:41:25;100639.56;;;9.77;66.78
4570;BME280;2297;51.442;6.996;2023-02-19T06:43:52;100641.16;;;9.90;66.28
4570;BME280;2297;51.442;6.996;2023-02-19T06:46:18;100648.34;;;9.76;66.83
4570;BME280;2297;51.442;6.996;2023-02-19T06:48:45;100656.34;;;9.68;67.35
4570;BME280;2297;51.442;6.996;2023-02-19T06:51:14;100658.22;;;9.57;67.63
4570;BME280;2297;51.442;6.996;2023-02-19T06:53:43;100657.31;;;9.59;66.94
4570;BME280;2297;51.442;6.996;2023-02-19T06:56:22;100659.06;;;9.60;67.09
4570;BME280;2297;51.442;6.996;2023-02-19T06:58:49;100674.81;;;9.70;67.17
4570;BME280;2297;51.442;6.996;2023-02-19T07:01:16;100673.94;;;9.69;66.91
4570;BME280;2297;51.442;6.996;2023-02-19T07:03:43;100675.84;;;9.55;67.61
4570;BME280;2297;51.442;6.996;2023-02-19T07:06:09;100689.97;;;9.49;67.74
4570;BME280;2297;51.442;6.996;2023-02-19T07:08:37;100673.88;;;9.72;67.02
4570;BME280;2297;51.442;6.996;2023-02-19T07:11:04;100692.50;;;9.57;67.81
4570;BME280;2297;51.442;6.996;2023-02-19T07:13:31;100698.75;;;9.50;67.54
4570;BME280;2297;51.442;6.996;2023-02-19T07:15:58;100702.13;;;9.64;67.19
4570;BME280;2297;51.442;6.996;2023-02-19T07:18:25;100712.00;;;9.42;67.70
4570;BME280;2297;51.442;6.996;2023-02-19T07:20:52;100714.75;;;9.31;67.81
4570;BME280;2297;51.442;6.996;2023-02-19T07:23:18;100711.44;;;9.07;68.35
4570;BME280;2297;51.442;6.996;2023-02-19T07:25:46;100721.72;;;9.40;67.48
4570;BME280;2297;51.442;6.996;2023-02-19T07:28:13;100728.69;;;9.45;67.26
4570;BME280;2297;51.442;6.996;2023-02-19T07:30:40;100738.50;;;9.28;67.39
4570;BME280;2297;51.442;6.996;2023-02-19T07:33:07;100740.06;;;9.49;67.50
4570;BME280;2297;51.442;6.996;2023-02-19T07:35:33;100746.38;;;9.31;68.01
4570;BME280;2297;51.442;6.996;2023-02-19T07:38:00;100744.53;;;9.39;67.72
4570;BME280;2297;51.442;6.996;2023-02-19T07:40:27;100750.97;;;9.07;67.76
4570;BME280;2297;51.442;6.996;2023-02-19T07:42:54;100753.56;;;9.09;68.49
4570;BME280;2297;51.442;6.996;2023-02-19T07:45:21;100756.88;;;9.37;66.86
4570;BME280;2297;51.442;6.996;2023-02-19T07:47:48;100750.50;;;9.60;66.43
4570;BME280;2297;51.442;6.996;2023-02-19T07:50:14;100778.16;;;9.12;68.01
4570;BME280;2297;51.442;6.996;2023-02-19T07:52:41;100771.75;;;9.44;67.32
4570;BME280;2297;51.442;6.996;2023-02-19T07:55:08;100754.81;;;9.67;66.37
4570;BME280;2297;51.442;6.996;2023-02-19T07:57:34;100756.47;;;9.77;66.06
4570;BME280;2297;51.442;6.996;2023-02-19T08:00:03;100765.47;;;9.58;66.48
4570;BME280;2297;51.442;6.996;2023-02-19T08:02:29;100774.09;;;9.74;65.81
4570;BME280;2297;51.442;6.996;2023-02-19T08:05:14;100773.06;;;9.90;65.40
4570;BME280;2297;51.442;6.996;2023-02-19T08:07:40;100783.16;;;9.46;66.68
4570;BME280;2297;51.442;6.996;2023-02-19T08:10:07;100780.16;;;9.85;65.75
4570;BME280;2297;51.442;6.996;2023-02-19T08:12:55;100793.28;;;9.88;65.67
4570;BME280;2297;51.442;6.996;2023-02-19T08:15:41;100802.97;;;9.86;65.35
4570;BME280;2297;51.442;6.996;2023-02-19T08:18:09;100787.25;;;9.78;65.51
4570;BME280;2297;51.442;6.996;2023-02-19T08:20:37;100795.00;;;9.97;65.27
4570;BME280;2297;51.442;6.996;2023-02-19T08:23:04;100804.88;;;9.70;65.83
4570;BME280;2297;51.442;6.996;2023-02-19T08:25:31;100812.16;;;9.45;66.22
4570;BME280;2297;51.442;6.996;2023-02-19T08:27:59;100798.72;;;9.74;65.86
4570;BME280;2297;51.442;6.996;2023-02-19T08:30:26;100796.81;;;9.90;65.30
4570;BME280;2297;51.442;6.996;2023-02-19T08:32:55;100800.31;;;9.94;64.97
4570;BME280;2297;51.442;6.996;2023-02-19T08:35:23;100797.03;;;9.67;65.68
4570;BME280;2297;51.442;6.996;2023-02-19T08:37:49;100798.47;;;10.02;64.71
4570;BME280;2297;51.442;6.996;2023-02-19T08:40:16;100810.25;;;9.64;65.42
4570;BME280;2297;51.442;6.996;2023-02-19T08:42:43;100804.75;;;9.86;64.94
4570;BME280;2297;51.442;6.996;2023-02-19T08:45:09;100802.00;;;10.01;64.79
4570;BME280;2297;51.442;6.996;2023-02-19T08:47:36;100806.31;;;10.07;64.52
4570;BME280;2297;51.442;6.996;2023-02-19T08:50:05;100807.28;;;10.01;64.53
4570;BME280;2297;51.442;6.996;2023-02-19T08:52:32;100815.25;;;9.95;64.69
4570;BME280;2297;51.442;6.996;2023-02-19T08:54:59;100815.22;;;9.98;63.88
4570;BME280;2297;51.442;6.996;2023-02-19T08:57:26;100817.09;;;9.84;64.32
4570;BME280;2297;51.442;6.996;2023-02-19T08:59:53;100810.91;;;9.85;64.16
4570;BME280;2297;51.442;6.996;2023-02-19T09:02:20;100815.88;;;10.19;63.17
4570;BME280;2297;51.442;6.996;2023-02-19T09:04:47;100821.19;;;10.16;63.30
4570;BME280;2297;51.442;6.996;2023-02-19T09:07:15;100830.97;;;10.06;63.19
4570;BME280;2297;51.442;6.996;2023-02-19T09:09:42;100838.91;;;10.03;63.47
4570;BME280;2297;51.442;6.996;2023-02-19T09:12:11;100842.13;;;10.31;63.24
4570;BME280;2297;51.442;6.996;2023-02-19T09:14:38;100840.56;;;10.14;62.99
4570;BME280;2297;51.442;6.996;2023-02-19T09:17:05;100847.50;;;10.25;62.78
4570;BME280;2297;51.442;6.996;2023-02-19T09:19:33;100856.13;;;10.39;62.57
4570;BME280;2297;51.442;6.996;2023-02-19T09:22:00;100852.88;;;10.12;62.77
4570;BME280;2297;51.442;6.996;2023-02-19T09:24:28;100861.63;;;10.18;62.69
4570;BME280;2297;51.442;6.996;2023-02-19T09:26:54;100862.50;;;10.17;62.38
4570;BME280;2297;51.442;6.996;2023-02-19T09:29:23;100862.41;;;10.29;62.50
4570;BME280;2297;51.442;6.996;2023-02-19T09:31:54;100868.44;;;10.40;61.81
4570;BME280;2297;51.442;6.996;2023-02-19T09:34:21;100874.63;;;10.36;62.27
4570;BME280;2297;51.442;6.996;2023-02-19T09:36:48;100868.81;;;10.03;62.70
4570;BME280;2297;51.442;6.996;2023-02-19T09:39:14;100861.53;;;10.30;62.40
4570;BME280;2297;51.442;6.996;2023-02-19T09:41:45;100862.38;;;10.32;62.67
4570;BME280;2297;51.442;6.996;2023-02-19T09:44:16;100872.88;;;10.37;62.61
4570;BME280;2297;51.442;6.996;2023-02-19T09:46:47;100880.00;;;10.27;63.37
4570;BME280;2297;51.442;6.996;2023-02-19T09:49:17;100883.66;;;10.15;64.06
4570;BME280;2297;51.442;6.996;2023-02-19T09:51:48;100885.41;;;10.16;64.36
4570;BME280;2297;51.442;6.996;2023-02-19T09:54:20;100889.84;;;10.12;64.13
4570;BME280;2297;51.442;6.996;2023-02-19T09:56:49;100903.13;;;10.03;63.77
4570;BME280;2297;51.442;6.996;2023-02-19T09:59:19;100896.06;;;10.05;64.12
4570;BME280;2297;51.442;6.996;2023-02-19T10:01:48;100918.03;;;10.10;63.65
4570;BME280;2297;51.442;6.996;2023-02-19T10:04:18;100918.09;;;10.01;64.42
4570;BME280;2297;51.442;6.996;2023-02-19T10:06:45;100923.84;;;10.42;62.94
4570;BME280;2297;51.442;6.996;2023-02-19T10:09:18;100934.47;;;10.37;62.92
4570;BME280;2297;51.442;6.996;2023-02-19T10:11:49;100936.94;;;10.56;62.21
4570;BME280;2297;51.442;6.996;2023-02-19T10:14:21;100942.81;;;10.79;61.62
4570;BME280;2297;51.442;6.996;2023-02-19T10:16:50;100943.75;;;10.75;61.25
4570;BME280;2297;51.442;6.996;2023-02-19T10:19:17;100943.09;;;10.55;61.26
4570;BME280;2297;51.442;6.996;2023-02-19T10:21:44;100942.25;;;10.53;60.65
4570;BME280;2297;51.442;6.996;2023-02-19T10:24:19;100944.00;;;10.51;60.24
4570;BME280;2297;51.442;6.996;2023-02-19T10:26:46;100954.69;;;10.41;60.51
4570;BME280;2297;51.442;6.996;2023-02-19T10:29:16;100967.22;;;10.21;60.61
4570;BME280;2297;51.442;6.996;2023-02-19T10:31:44;100968.84;;;10.34;60.64
4570;BME280;2297;51.442;6.996;2023-02-19T10:34:17;100978.34;;;10.51;60.18
4570;BME280;2297;51.442;6.996;2023-02-19T10:36:46;100979.13;;;10.59;60.34
4570;BME280;2297;51.442;6.996;2023-02-19T10:39:35;100988.97;;;10.47;60.32
4570;BME280;2297;51.442;6.996;2023-02-19T10:42:04;100982.66;;;10.61;60.49
4570;BME280;2297;51.442;6.996;2023-02-19T10:44:37;100984.38;;;10.65;60.15
4570;BME280;2297;51.442;6.996;2023-02-19T10:47:14;100982.66;;;10.61;60.02
4570;BME280;2297;51.442;6.996;2023-02-19T10:49:42;100985.16;;;10.73;59.83
4570;BME280;2297;51.442;6.996;2023-02-19T10:52:13;100982.63;;;10.64;59.47
4570;BME280;2297;51.442;6.996;2023-02-19T10:54:43;100973.91;;;10.56;59.34
4570;BME280;2297;51.442;6.996;2023-02-19T10:57:28;100976.25;;;10.82;58.37
4570;BME280;2297;51.442;6.996;2023-02-19T10:59:59;100984.81;;;11.06;58.25
4570;BME280;2297;51.442;6.996;2023-02-19T11:02:28;101005.25;;;10.87;58.43
4570;BME280;2297;51.442;6.996;2023-02-19T11:05:05;101010.75;;;10.68;58.31
4570;BME280;2297;51.442;6.996;2023-02-19T11:07:45;101004.53;;;10.75;58.03
4570;BME280;2297;51.442;6.996;2023-02-19T11:10:22;100998.16;;;10.92;57.80
4570;BME280;2297;51.442;6.996;2023-02-19T11:12:50;101015.38;;;10.44;59.24
4570;BME280;2297;51.442;6.996;2023-02-19T11:15:22;100997.34;;;10.85;58.61
4570;BME280;2297;51.442;6.996;2023-02-19T11:17:55;100994.56;;;10.97;58.51
4570;BME280;2297;51.442;6.996;2023-02-19T11:20:22;101005.31;;;10.84;58.30
4570;BME280;2297;51.442;6.996;2023-02-19T11:22:49;101003.69;;;10.70;58.60
4570;BME280;2297;51.442;6.996;2023-02-19T11:25:20;101012.25;;;10.91;58.22
4570;BME280;2297;51.442;6.996;2023-02-19T11:28:04;101012.56;;;10.63;58.23
4570;BME280;2297;51.442;6.996;2023-02-19T11:30:37;100997.38;;;10.84;58.26
4570;BME280;2297;51.442;6.996;2023-02-19T11:33:31;100998.44;;;10.67;58.16
4570;BME280;2297;51.442;6.996;2023-02-19T11:36:21;100995.78;;;10.69;58.37
4570;BME280;2297;51.442;6.996;2023-02-19T11:38:49;100988.28;;;11.12;57.58
4570;BME280;2297;51.442;6.996;2023-02-19T11:41:25;100992.69;;;11.10;57.01
4570;BME280;2297;51.442;6.996;2023-02-19T11:44:05;100997.28;;;10.93;58.35
4570;BME280;2297;51.442;6.996;2023-02-19T11:46:44;100992.00;;;10.91;59.52
4570;BME280;2297;51.442;6.996;2023-02-19T11:49:24;100985.81;;;10.94;59.43
4570;BME280;2297;51.442;6.996;2023-02-19T11:52:06;100988.28;;;11.12;58.99
4570;BME280;2297;51.442;6.996;2023-02-19T11:54:46;100980.56;;;10.91;58.37
4570;BME280;2297;51.442;6.996;2023-02-19T11:57:34;100985.63;;;11.09;57.60
4570;BME280;2297;51.442;6.996;2023-02-19T12:00:23;100973.84;;;11.37;56.48
4570;BME280;2297;51.442;6.996;2023-02-19T12:03:03;100979.94;;;11.43;56.33
4570;BME280;2297;51.442;6.996;2023-02-19T12:05:47;100980.09;;;11.31;56.89
4570;BME280;2297;51.442;6.996;2023-02-19T12:08:41;100987.63;;;10.89;57.88
4570;BME280;2297;51.442;6.996;2023-02-19T12:11:29;100994.75;;;10.84;58.52
4570;BME280;2297;51.442;6.996;2023-02-19T12:14:31;101001.84;;;10.78;58.82
4570;BME280;2297;51.442;6.996;2023-02-19T12:17:06;100997.19;;;11.01;58.52
4570;BME280;2297;51.442;6.996;2023-02-19T12:19:52;101006.78;;;11.12;58.35
4570;BME280;2297;51.442;6.996;2023-02-19T12:22:29;101010.31;;;11.08;58.59
4570;BME280;2297;51.442;6.996;2023-02-19T12:25:26;101012.03;;;11.09;58.12
4570;BME280;2297;51.442;6.996;2023-02-19T12:28:12;101011.91;;;11.25;57.56
4570;BME280;2297;51.442;6.996;2023-02-19T12:30:55;101015.03;;;10.80;56.60
4570;BME280;2297;51.442;6.996;2023-02-19T12:36:36;101017.91;;;10.58;57.71
4570;BME280;2297;51.442;6.996;2023-02-19T12:39:14;101027.13;;;10.09;57.37
4570;BME280;2297;51.442;6.996;2023-02-19T12:41:50;101033.84;;;10.47;57.19
4570;BME280;2297;51.442;6.996;2023-02-19T12:44:24;101026.06;;;10.30;57.69
4570;BME280;2297;51.442;6.996;2023-02-19T12:46:57;101028.56;;;10.47;56.65
4570;BME280;2297;51.442;6.996;2023-02-19T12:49:29;101035.41;;;10.70;56.25
4570;BME280;2297;51.442;6.996;2023-02-19T12:52:00;101021.19;;;10.82;55.01
4570;BME280;2297;51.442;6.996;2023-02-19T12:54:33;101023.66;;;10.96;55.01
4570;BME280;2297;51.442;6.996;2023-02-19T12:57:02;101012.94;;;11.10;54.53
4570;BME280;2297;51.442;6.996;2023-02-19T12:59:32;101023.75;;;10.88;52.93
4570;BME280;2297;51.442;6.996;2023-02-19T13:02:08;101027.84;;;11.19;52.60
4570;BME280;2297;51.442;6.996;2023-02-19T13:04:42;101029.81;;;10.98;51.84
4570;BME280;2297;51.442;6.996;2023-02-19T13:07:15;101028.09;;;10.94;52.58
4570;BME280;2297;51.442;6.996;2023-02-19T13:09:47;101024.31;;;11.20;52.14
4570;BME280;2297;51.442;6.996;2023-02-19T13:12:20;101029.16;;;11.54;51.73
4570;BME280;2297;51.442;6.996;2023-02-19T13:14:52;101031.22;;;11.30;52.00
4570;BME280;2297;51.442;6.996;2023-02-19T13:17:23;101032.19;;;11.23;51.44
4570;BME280;2297;51.442;6.996;2023-02-19T13:19:55;101027.59;;;11.37;51.68
4570;BME280;2297;51.442;6.996;2023-02-19T13:22:31;101023.94;;;11.49;51.85
4570;BME280;2297;51.442;6.996;2023-02-19T13:25:18;101027.41;;;11.53;52.57
4570;BME280;2297;51.442;6.996;2023-02-19T13:28:06;101034.84;;;11.23;53.03
4570;BME280;2297;51.442;6.996;2023-02-19T13:30:47;101026.94;;;11.20;53.70
4570;BME280;2297;51.442;6.996;2023-02-19T13:33:31;101042.34;;;10.80;54.58
4570;BME280;2297;51.442;6.996;2023-02-19T13:36:10;101050.28;;;10.80;55.00
4570;BME280;2297;51.442;6.996;2023-02-19T13:38:41;101055.50;;;10.85;55.38
4570;BME280;2297;51.442;6.996;2023-02-19T13:41:20;101059.97;;;10.78;55.39
4570;BME280;2297;51.442;6.996;2023-02-19T13:43:57;101057.97;;;11.02;55.27
4570;BME280;2297;51.442;6.996;2023-02-19T13:46:32;101077.88;;;10.45;56.19